createdAt,value
2019-04-03T00:00:43.714Z,19.4
2019-04-03T00:01:43.695Z,19.39
2019-04-03T00:02:43.879Z,19.4
2019-04-03T00:03:43.819Z,19.4
2019-04-03T00:04:43.999Z,19.42
2019-04-03T00:05:43.871Z,19.39
2019-04-03T00:06:43.764Z,19.4
2019-04-03T00:07:43.536Z,19.37
2019-04-03T00:08:43.641Z,19.36
2019-04-03T00:09:43.505Z,19.36
2019-04-03T00:10:43.528Z,19.37
2019-04-03T00:11:43.557Z,19.37
2019-04-03T00:12:43.528Z,19.35
2019-04-03T00:13:43.563Z,19.39
2019-04-03T00:14:43.592Z,19.36
2019-04-03T00:15:45.490Z,19.35
2019-04-03T00:16:46.302Z,19.35
2019-04-03T00:17:46.730Z,19.36
2019-04-03T00:18:48.044Z,19.37
2019-04-03T00:19:43.667Z,19.37
2019-04-03T00:20:43.701Z,19.36
2019-04-03T00:21:43.696Z,19.37
2019-04-03T00:22:47.099Z,19.36
2019-04-03T00:23:43.604Z,19.36
2019-04-03T00:24:43.741Z,19.36
2019-04-03T00:25:43.545Z,19.37
2019-04-03T00:26:43.582Z,19.36
2019-04-03T00:27:43.546Z,19.36
2019-04-03T00:28:43.585Z,19.36
2019-04-03T00:29:43.578Z,19.36
2019-04-03T00:30:43.872Z,19.32
2019-04-03T00:31:43.613Z,19.36
2019-04-03T00:32:43.657Z,19.36
2019-04-03T00:33:43.632Z,19.33
2019-04-03T00:34:43.611Z,19.35
2019-04-03T00:35:43.696Z,19.33
2019-04-03T00:36:43.695Z,19.33
2019-04-03T00:37:43.713Z,19.35
2019-04-03T00:38:43.517Z,19.33
2019-04-03T00:39:43.708Z,19.33
2019-04-03T00:40:44.074Z,19.33
2019-04-03T00:41:43.722Z,19.32
2019-04-03T00:42:43.745Z,19.32
2019-04-03T00:43:43.867Z,19.35
2019-04-03T00:44:43.494Z,19.32
2019-04-03T00:45:43.859Z,19.35
2019-04-03T00:46:43.528Z,19.3
2019-04-03T00:47:43.618Z,19.29
2019-04-03T00:48:43.600Z,19.3
2019-04-03T00:49:43.886Z,19.32
2019-04-03T00:50:43.519Z,19.3
2019-04-03T00:51:43.797Z,19.3
2019-04-03T00:52:43.666Z,19.32
2019-04-03T00:53:43.663Z,19.32
2019-04-03T00:54:43.517Z,19.29
2019-04-03T00:55:43.937Z,19.3
2019-04-03T00:56:43.681Z,19.29
2019-04-03T00:57:43.947Z,19.27
2019-04-03T00:58:43.757Z,19.32
2019-04-03T00:59:43.719Z,19.3
2019-04-03T01:00:43.941Z,19.29
2019-04-03T01:01:43.498Z,19.27
2019-04-03T01:02:43.532Z,19.29
2019-04-03T01:03:43.785Z,19.29
2019-04-03T01:04:43.581Z,19.29
2019-04-03T01:05:43.515Z,19.29
2019-04-03T01:06:43.585Z,19.27
2019-04-03T01:07:43.595Z,19.3
2019-04-03T01:08:43.609Z,19.29
2019-04-03T01:09:43.713Z,19.3
2019-04-03T01:10:43.843Z,19.3
2019-04-03T01:11:43.717Z,19.29
2019-04-03T01:12:43.837Z,19.29
2019-04-03T01:13:43.725Z,19.27
2019-04-03T01:14:44.043Z,19.26
2019-04-03T01:15:43.691Z,19.26
2019-04-03T01:16:43.885Z,19.29
2019-04-03T01:17:43.524Z,19.27
2019-04-03T01:18:43.727Z,19.27
2019-04-03T01:19:43.777Z,19.29
2019-04-03T01:20:43.493Z,19.27
2019-04-03T01:21:43.640Z,19.25
2019-04-03T01:22:43.524Z,19.27
2019-04-03T01:23:43.735Z,19.27
2019-04-03T01:24:43.637Z,19.29
2019-04-03T01:25:43.707Z,19.25
2019-04-03T01:26:43.565Z,19.27
2019-04-03T01:27:43.545Z,19.26
2019-04-03T01:28:43.962Z,19.26
2019-04-03T01:29:43.947Z,19.25
2019-04-03T01:30:44.910Z,19.27
2019-04-03T01:31:45.637Z,19.27
2019-04-03T01:32:47.345Z,19.27
2019-04-03T01:33:47.351Z,19.26
2019-04-03T01:34:43.918Z,19.25
2019-04-03T01:35:43.726Z,19.26
2019-04-03T01:36:43.690Z,19.25
2019-04-03T01:37:43.490Z,19.25
2019-04-03T01:38:43.563Z,19.22
2019-04-03T01:39:43.550Z,19.23
2019-04-03T01:40:43.560Z,19.25
2019-04-03T01:41:43.600Z,19.23
2019-04-03T01:42:43.566Z,19.25
2019-04-03T01:43:43.641Z,19.23
2019-04-03T01:44:43.464Z,19.25
2019-04-03T01:45:43.625Z,19.23
2019-04-03T01:46:43.633Z,19.23
2019-04-03T01:47:43.657Z,19.23
2019-04-03T01:48:43.697Z,19.25
2019-04-03T01:49:43.723Z,19.22
2019-04-03T01:50:43.687Z,19.22
2019-04-03T01:51:44.049Z,19.22
2019-04-03T01:52:43.799Z,19.25
2019-04-03T01:53:43.821Z,19.25
2019-04-03T01:54:43.871Z,19.25
2019-04-03T01:55:44.268Z,19.23
2019-04-03T01:56:43.496Z,19.23
2019-04-03T01:57:43.505Z,19.23
2019-04-03T01:58:43.542Z,19.2
2019-04-03T01:59:43.499Z,19.23
2019-04-03T02:00:43.802Z,19.22
2019-04-03T02:01:43.686Z,19.22
2019-04-03T02:02:43.619Z,19.23
2019-04-03T02:03:43.671Z,19.22
2019-04-03T02:04:43.701Z,19.22
2019-04-03T02:05:44.377Z,19.23
2019-04-03T02:06:44.567Z,19.23
2019-04-03T02:07:45.465Z,19.2
2019-04-03T02:08:45.791Z,19.2
2019-04-03T02:09:47.636Z,19.2
2019-04-03T02:10:43.706Z,19.22
2019-04-03T02:11:43.711Z,19.22
2019-04-03T02:12:43.715Z,19.2
2019-04-03T02:13:43.878Z,19.2
2019-04-03T02:14:43.486Z,19.19
2019-04-03T02:15:46.369Z,19.2
2019-04-03T02:16:43.815Z,19.19
2019-04-03T02:17:43.560Z,19.2
2019-04-03T02:18:43.560Z,19.2
2019-04-03T02:19:43.815Z,19.19
2019-04-03T02:20:43.614Z,19.2
2019-04-03T02:21:43.834Z,19.18
2019-04-03T02:22:43.631Z,19.2
2019-04-03T02:23:43.745Z,19.2
2019-04-03T02:24:43.630Z,19.2
2019-04-03T02:25:43.624Z,19.19
2019-04-03T02:26:44.096Z,19.19
2019-04-03T02:27:43.681Z,19.18
2019-04-03T02:28:43.732Z,19.19
2019-04-03T02:29:43.679Z,19.18
2019-04-03T02:30:47.923Z,19.18
2019-04-03T02:31:43.480Z,19.18
2019-04-03T02:32:43.937Z,19.16
2019-04-03T02:33:44.057Z,19.16
2019-04-03T02:34:43.546Z,19.18
2019-04-03T02:35:43.739Z,19.18
2019-04-03T02:36:45.883Z,19.18
2019-04-03T02:37:43.622Z,19.19
2019-04-03T02:38:43.577Z,19.18
2019-04-03T02:39:43.581Z,19.19
2019-04-03T02:40:44.097Z,19.18
2019-04-03T02:41:43.760Z,19.16
2019-04-03T02:42:44.854Z,19.16
2019-04-03T02:43:47.938Z,19.18
2019-04-03T02:44:44.014Z,19.18
2019-04-03T02:45:44.462Z,19.15
2019-04-03T02:46:43.708Z,19.18
2019-04-03T02:47:43.766Z,19.15
2019-04-03T02:48:43.903Z,19.16
2019-04-03T02:49:44.263Z,19.15
2019-04-03T02:50:48.808Z,19.18
2019-04-03T02:51:44.157Z,19.15
2019-04-03T02:52:43.573Z,19.16
2019-04-03T02:53:43.623Z,19.13
2019-04-03T02:54:43.965Z,19.15
2019-04-03T02:55:43.609Z,19.16
2019-04-03T02:56:46.660Z,19.15
2019-04-03T02:57:43.787Z,19.16
2019-04-03T02:58:43.823Z,19.16
2019-04-03T02:59:43.437Z,19.15
2019-04-03T03:00:43.830Z,19.13
2019-04-03T03:01:44.167Z,19.15
2019-04-03T03:02:46.438Z,19.13
2019-04-03T03:03:43.946Z,19.13
2019-04-03T03:04:44.052Z,19.13
2019-04-03T03:05:44.273Z,19.12
2019-04-03T03:06:44.089Z,19.13
2019-04-03T03:07:43.495Z,19.13
2019-04-03T03:08:43.547Z,19.12
2019-04-03T03:09:48.687Z,19.12
2019-04-03T03:10:43.904Z,19.13
2019-04-03T03:11:43.928Z,19.15
2019-04-03T03:12:43.530Z,19.12
2019-04-03T03:13:43.639Z,19.12
2019-04-03T03:14:44.012Z,19.15
2019-04-03T03:15:45.823Z,19.12
2019-04-03T03:16:43.922Z,19.11
2019-04-03T03:17:43.669Z,19.13
2019-04-03T03:18:43.679Z,19.13
2019-04-03T03:19:43.863Z,19.13
2019-04-03T03:20:43.949Z,19.13
2019-04-03T03:21:46.482Z,19.12
2019-04-03T03:22:43.784Z,19.12
2019-04-03T03:23:43.795Z,19.12
2019-04-03T03:24:44.195Z,19.13
2019-04-03T03:25:43.516Z,19.13
2019-04-03T03:26:43.843Z,19.13
2019-04-03T03:27:43.533Z,19.11
2019-04-03T03:28:48.383Z,19.11
2019-04-03T03:29:44.232Z,19.11
2019-04-03T03:31:08.498Z,19.12
2019-04-03T03:32:46.326Z,19.12
2019-04-03T03:33:45.356Z,19.11
2019-04-03T03:35:53.548Z,19.11
2019-04-03T03:36:47.540Z,19.09
2019-04-03T03:37:44.196Z,19.09
2019-04-03T03:38:45.779Z,19.08
2019-04-03T03:39:44.892Z,19.08
2019-04-03T03:40:49.991Z,19.09
2019-04-03T03:41:43.935Z,19.08
2019-04-03T03:42:43.910Z,19.09
2019-04-03T03:43:43.439Z,19.12
2019-04-03T03:44:47.736Z,19.08
2019-04-03T03:45:43.952Z,19.09
2019-04-03T03:46:44.132Z,19.13
2019-04-03T03:47:43.552Z,19.12
2019-04-03T03:48:46.037Z,19.12
2019-04-03T03:49:43.706Z,19.16
2019-04-03T03:50:43.734Z,19.15
2019-04-03T03:51:44.025Z,19.16
2019-04-03T03:52:44.052Z,19.19
2019-04-03T03:53:47.121Z,19.18
2019-04-03T03:54:44.052Z,19.19
2019-04-03T03:55:43.919Z,19.22
2019-04-03T03:56:44.182Z,19.25
2019-04-03T03:57:44.052Z,19.27
2019-04-03T03:58:46.853Z,19.27
2019-04-03T03:59:44.024Z,19.29
2019-04-03T04:00:44.189Z,19.29
2019-04-03T04:01:44.088Z,19.33
2019-04-03T04:02:51.062Z,19.33
2019-04-03T04:03:43.614Z,19.36
2019-04-03T04:04:50.058Z,19.4
2019-04-03T04:05:44.066Z,19.39
2019-04-03T04:06:43.955Z,19.4
2019-04-03T04:07:43.546Z,19.42
2019-04-03T04:08:46.136Z,19.45
2019-04-03T04:09:43.692Z,19.43
2019-04-03T04:10:43.707Z,19.49
2019-04-03T04:11:43.696Z,19.5
2019-04-03T04:12:44.261Z,19.53
2019-04-03T04:13:51.028Z,19.53
2019-04-03T04:14:43.695Z,19.54
2019-04-03T04:15:44.111Z,19.57
2019-04-03T04:16:44.495Z,19.58
2019-04-03T04:17:43.787Z,19.6
2019-04-03T04:18:44.349Z,19.6
2019-04-03T04:19:44.087Z,19.63
2019-04-03T04:20:43.745Z,19.65
2019-04-03T04:21:46.128Z,19.64
2019-04-03T04:22:43.486Z,19.68
2019-04-03T04:23:44.687Z,19.7
2019-04-03T04:24:43.499Z,19.7
2019-04-03T04:25:45.012Z,19.73
2019-04-03T04:26:43.557Z,19.73
2019-04-03T04:27:43.706Z,19.73
2019-04-03T04:28:43.531Z,19.73
2019-04-03T04:29:43.694Z,19.77
2019-04-03T04:30:43.857Z,19.77
2019-04-03T04:31:44.676Z,19.75
2019-04-03T04:32:47.122Z,19.74
2019-04-03T04:33:43.734Z,19.77
2019-04-03T04:34:43.971Z,19.78
2019-04-03T04:35:43.686Z,19.8
2019-04-03T04:36:43.680Z,19.82
2019-04-03T04:37:43.525Z,19.82
2019-04-03T04:38:43.608Z,19.81
2019-04-03T04:39:43.601Z,19.84
2019-04-03T04:40:43.826Z,19.82
2019-04-03T04:41:43.814Z,19.85
2019-04-03T04:42:43.645Z,19.84
2019-04-03T04:43:43.576Z,19.84
2019-04-03T04:44:43.937Z,19.85
2019-04-03T04:45:43.574Z,19.85
2019-04-03T04:46:45.260Z,19.86
2019-04-03T04:47:46.984Z,19.85
2019-04-03T04:48:43.694Z,19.88
2019-04-03T04:49:43.715Z,19.88
2019-04-03T04:50:43.740Z,19.88
2019-04-03T04:51:43.752Z,19.85
2019-04-03T04:52:43.610Z,19.84
2019-04-03T04:53:43.592Z,19.75
2019-04-03T04:54:43.454Z,19.68
2019-04-03T04:55:43.427Z,19.63
2019-04-03T04:56:43.475Z,19.56
2019-04-03T04:57:43.592Z,19.54
2019-04-03T04:58:44.144Z,19.47
2019-04-03T04:59:45.764Z,19.42
2019-04-03T05:00:48.398Z,19.42
2019-04-03T05:01:43.698Z,19.4
2019-04-03T05:02:43.613Z,19.36
2019-04-03T05:03:43.554Z,19.32
2019-04-03T05:04:43.875Z,19.27
2019-04-03T05:05:43.790Z,19.25
2019-04-03T05:06:43.627Z,19.2
2019-04-03T05:07:43.912Z,19.22
2019-04-03T05:08:43.714Z,19.18
2019-04-03T05:09:43.560Z,19.16
2019-04-03T05:10:43.496Z,19.15
2019-04-03T05:11:43.839Z,19.12
2019-04-03T05:12:46.144Z,19.11
2019-04-03T05:13:47.391Z,19.06
2019-04-03T05:14:43.673Z,19.06
2019-04-03T05:15:44.133Z,19.03
2019-04-03T05:16:43.563Z,19.05
2019-04-03T05:17:43.920Z,19.03
2019-04-03T05:18:43.642Z,18.98
2019-04-03T05:19:43.580Z,18.98
2019-04-03T05:20:43.667Z,18.97
2019-04-03T05:21:43.597Z,18.95
2019-04-03T05:22:43.790Z,18.94
2019-04-03T05:23:44.028Z,18.97
2019-04-03T05:24:43.734Z,18.97
2019-04-03T05:25:43.647Z,18.91
2019-04-03T05:26:44.062Z,18.94
2019-04-03T05:27:43.414Z,18.92
2019-04-03T05:28:57.998Z,18.92
2019-04-03T05:29:43.441Z,18.92
2019-04-03T05:30:43.440Z,18.88
2019-04-03T05:31:43.866Z,18.9
2019-04-03T05:32:43.444Z,18.88
2019-04-03T05:33:43.509Z,18.85
2019-04-03T05:34:44.899Z,18.85
2019-04-03T05:35:46.823Z,18.81
2019-04-03T05:36:44.219Z,18.83
2019-04-03T05:37:43.850Z,18.83
2019-04-03T05:38:43.550Z,18.83
2019-04-03T05:39:43.691Z,18.81
2019-04-03T05:40:43.678Z,18.8
2019-04-03T05:41:43.672Z,18.8
2019-04-03T05:42:44.248Z,18.8
2019-04-03T05:43:43.748Z,18.8
2019-04-03T05:44:43.493Z,18.77
2019-04-03T05:45:43.523Z,18.78
2019-04-03T05:46:43.498Z,18.78
2019-04-03T05:47:43.807Z,18.77
2019-04-03T05:48:43.826Z,18.77
2019-04-03T05:49:56.588Z,18.77
2019-04-03T05:50:43.534Z,18.73
2019-04-03T05:51:43.815Z,18.74
2019-04-03T05:52:43.820Z,18.74
2019-04-03T05:53:43.611Z,18.73
2019-04-03T05:54:45.606Z,18.74
2019-04-03T05:55:43.934Z,18.75
2019-04-03T05:56:43.693Z,18.73
2019-04-03T05:57:46.654Z,18.73
2019-04-03T05:59:03.209Z,18.74
2019-04-03T05:59:44.803Z,18.73
2019-04-03T06:00:43.780Z,18.73
2019-04-03T06:01:47.460Z,18.74
2019-04-03T06:02:43.419Z,18.74
2019-04-03T06:03:46.476Z,18.71
2019-04-03T06:04:44.189Z,18.75
2019-04-03T06:05:44.908Z,18.74
2019-04-03T06:06:48.076Z,18.73
2019-04-03T06:07:43.483Z,18.77
2019-04-03T06:08:43.490Z,18.8
2019-04-03T06:09:43.543Z,18.83
2019-04-03T06:10:43.610Z,18.91
2019-04-03T06:11:44.000Z,18.94
2019-04-03T06:12:46.902Z,18.99
2019-04-03T06:13:43.569Z,19.03
2019-04-03T06:14:43.673Z,19.05
2019-04-03T06:15:44.088Z,19.08
2019-04-03T06:16:43.629Z,19.12
2019-04-03T06:17:43.478Z,19.13
2019-04-03T06:18:48.850Z,19.18
2019-04-03T06:19:43.499Z,19.2
2019-04-03T06:20:44.220Z,19.26
2019-04-03T06:21:47.160Z,19.23
2019-04-03T06:22:43.796Z,19.27
2019-04-03T06:23:43.602Z,19.29
2019-04-03T06:24:43.522Z,19.32
2019-04-03T06:25:43.971Z,19.33
2019-04-03T06:26:45.352Z,19.35
2019-04-03T06:27:46.636Z,19.37
2019-04-03T06:28:48.047Z,19.39
2019-04-03T06:29:43.675Z,19.42
2019-04-03T06:30:43.880Z,19.45
2019-04-03T06:31:43.763Z,19.43
2019-04-03T06:32:43.677Z,19.46
2019-04-03T06:33:43.550Z,19.49
2019-04-03T06:34:44.496Z,19.53
2019-04-03T06:35:46.801Z,19.54
2019-04-03T06:36:43.382Z,19.57
2019-04-03T06:37:43.459Z,19.61
2019-04-03T06:38:43.568Z,19.61
2019-04-03T06:39:43.761Z,19.65
2019-04-03T06:40:43.487Z,19.64
2019-04-03T06:41:43.647Z,19.65
2019-04-03T06:42:45.906Z,19.65
2019-04-03T06:43:43.766Z,19.67
2019-04-03T06:44:43.992Z,19.68
2019-04-03T06:45:44.623Z,19.71
2019-04-03T06:46:43.531Z,19.71
2019-04-03T06:47:43.510Z,19.74
2019-04-03T06:48:44.036Z,19.75
2019-04-03T06:49:43.748Z,19.75
2019-04-03T06:50:43.922Z,19.77
2019-04-03T06:51:43.421Z,19.75
2019-04-03T06:52:43.387Z,19.75
2019-04-03T06:53:43.747Z,19.8
2019-04-03T06:54:45.479Z,19.8
2019-04-03T06:55:43.433Z,19.81
2019-04-03T06:56:43.477Z,19.81
2019-04-03T06:57:43.556Z,19.81
2019-04-03T06:58:45.387Z,19.81
2019-04-03T06:59:43.423Z,19.82
2019-04-03T07:00:47.846Z,19.85
2019-04-03T07:01:43.648Z,19.85
2019-04-03T07:02:43.558Z,19.85
2019-04-03T07:03:43.387Z,19.85
2019-04-03T07:04:43.652Z,19.85
2019-04-03T07:05:44.011Z,19.86
2019-04-03T07:06:45.959Z,19.89
2019-04-03T07:07:44.045Z,19.86
2019-04-03T07:08:43.962Z,19.86
2019-04-03T07:09:43.472Z,19.91
2019-04-03T07:10:55.971Z,19.91
2019-04-03T07:11:44.274Z,19.91
2019-04-03T07:12:44.048Z,19.92
2019-04-03T07:13:43.850Z,19.92
2019-04-03T07:14:43.598Z,19.89
2019-04-03T07:15:43.546Z,19.92
2019-04-03T07:16:43.532Z,19.92
2019-04-03T07:17:43.822Z,19.92
2019-04-03T07:18:43.630Z,19.92
2019-04-03T07:19:43.690Z,19.91
2019-04-03T07:20:43.637Z,19.92
2019-04-03T07:21:43.534Z,19.92
2019-04-03T07:22:43.506Z,19.93
2019-04-03T07:23:43.634Z,19.92
2019-04-03T07:24:44.005Z,19.92
2019-04-03T07:25:43.602Z,19.93
2019-04-03T07:26:44.082Z,19.91
2019-04-03T07:27:44.048Z,19.89
2019-04-03T07:28:44.219Z,19.91
2019-04-03T07:29:43.410Z,19.93
2019-04-03T07:30:43.513Z,19.91
2019-04-03T07:31:43.595Z,19.93
2019-04-03T07:32:43.718Z,19.91
2019-04-03T07:33:43.474Z,19.92
2019-04-03T07:34:43.622Z,19.93
2019-04-03T07:35:43.653Z,19.91
2019-04-03T07:36:46.930Z,19.91
2019-04-03T07:37:43.963Z,19.92
2019-04-03T07:38:43.571Z,19.91
2019-04-03T07:39:44.136Z,19.93
2019-04-03T07:40:43.716Z,19.91
2019-04-03T07:41:43.624Z,19.92
2019-04-03T07:42:43.737Z,19.91
2019-04-03T07:43:43.792Z,19.92
2019-04-03T07:44:43.697Z,19.92
2019-04-03T07:45:44.254Z,19.91
2019-04-03T07:46:43.835Z,19.92
2019-04-03T07:47:43.721Z,19.92
2019-04-03T07:48:43.727Z,19.93
2019-04-03T07:49:43.499Z,19.92
2019-04-03T07:50:44.448Z,19.91
2019-04-03T07:51:44.695Z,19.93
2019-04-03T07:52:43.591Z,19.92
2019-04-03T07:53:43.521Z,19.91
2019-04-03T07:54:43.769Z,19.91
2019-04-03T07:55:44.919Z,19.92
2019-04-03T07:56:43.533Z,19.91
2019-04-03T07:57:43.522Z,19.92
2019-04-03T07:58:43.547Z,19.92
2019-04-03T07:59:43.632Z,19.93
2019-04-03T08:00:43.715Z,19.92
2019-04-03T08:01:43.757Z,19.89
2019-04-03T08:02:50.335Z,19.89
2019-04-03T08:03:43.371Z,19.92
2019-04-03T08:04:43.782Z,19.88
2019-04-03T08:05:43.665Z,19.91
2019-04-03T08:06:43.446Z,19.91
2019-04-03T08:07:44.132Z,19.89
2019-04-03T08:08:43.503Z,19.91
2019-04-03T08:09:43.467Z,19.88
2019-04-03T08:10:43.508Z,19.89
2019-04-03T08:11:43.580Z,19.91
2019-04-03T08:12:43.539Z,19.86
2019-04-03T08:13:43.559Z,19.89
2019-04-03T08:14:43.533Z,19.89
2019-04-03T08:15:45.636Z,19.89
2019-04-03T08:16:43.556Z,19.91
2019-04-03T08:17:43.546Z,19.89
2019-04-03T08:18:43.339Z,19.92
2019-04-03T08:19:46.281Z,19.91
2019-04-03T08:20:44.221Z,19.89
2019-04-03T08:21:43.582Z,19.89
2019-04-03T08:22:43.341Z,19.91
2019-04-03T08:23:43.530Z,19.93
2019-04-03T08:24:43.772Z,19.95
2019-04-03T08:25:49.383Z,19.95
2019-04-03T08:26:43.393Z,19.95
2019-04-03T08:27:44.020Z,19.98
2019-04-03T08:28:43.811Z,19.96
2019-04-03T08:29:43.639Z,19.96
2019-04-03T08:30:43.740Z,19.95
2019-04-03T08:31:49.229Z,19.98
2019-04-03T08:32:43.528Z,19.95
2019-04-03T08:33:43.621Z,19.98
2019-04-03T08:34:43.736Z,20.02
2019-04-03T08:35:43.599Z,19.99
2019-04-03T08:36:44.253Z,20.01
2019-04-03T08:37:43.793Z,20.02
2019-04-03T08:38:46.790Z,20.05
2019-04-03T08:39:43.366Z,20.07
2019-04-03T08:40:43.810Z,20.05
2019-04-03T08:41:43.406Z,20.07
2019-04-03T08:42:43.464Z,20.05
2019-04-03T08:43:43.610Z,20.07
2019-04-03T08:44:43.415Z,20.08
2019-04-03T08:45:44.160Z,20.02
2019-04-03T08:46:44.867Z,20.05
2019-04-03T08:47:47.112Z,20.05
2019-04-03T08:48:43.508Z,20.05
2019-04-03T08:49:43.626Z,20.05
2019-04-03T08:50:43.686Z,20.02
2019-04-03T08:51:43.587Z,20.05
2019-04-03T08:52:43.650Z,20.05
2019-04-03T08:53:43.898Z,20.05
2019-04-03T08:54:43.564Z,20.01
2019-04-03T08:55:47.732Z,20.05
2019-04-03T08:56:43.573Z,20.02
2019-04-03T08:57:47.169Z,20.05
2019-04-03T08:58:46.231Z,20.02
2019-04-03T08:59:43.340Z,20.05
2019-04-03T09:00:43.452Z,20.02
2019-04-03T09:01:43.766Z,20.04
2019-04-03T09:02:44.750Z,20.04
2019-04-03T09:03:46.609Z,20.04
2019-04-03T09:04:43.430Z,20.04
2019-04-03T09:05:43.398Z,20.02
2019-04-03T09:06:43.448Z,20.02
2019-04-03T09:07:43.473Z,20.04
2019-04-03T09:08:43.481Z,20.04
2019-04-03T09:09:43.471Z,20.04
2019-04-03T09:10:43.552Z,20.05
2019-04-03T09:11:43.811Z,20.02
2019-04-03T09:12:43.544Z,20.07
2019-04-03T09:13:43.989Z,20.05
2019-04-03T09:14:43.557Z,20.07
2019-04-03T09:15:43.430Z,20.05
2019-04-03T09:16:43.539Z,20.05
2019-04-03T09:17:43.748Z,20.07
2019-04-03T09:18:43.793Z,20.05
2019-04-03T09:19:43.931Z,20.08
2019-04-03T09:20:44.797Z,20.04
2019-04-03T09:21:52.015Z,20.05
2019-04-03T09:22:43.797Z,20.05
2019-04-03T09:23:43.415Z,20.05
2019-04-03T09:24:43.480Z,20.07
2019-04-03T09:25:43.466Z,20.08
2019-04-03T09:26:43.614Z,20.07
2019-04-03T09:27:43.563Z,20.05
2019-04-03T09:28:43.970Z,20.07
2019-04-03T09:29:46.314Z,20.07
2019-04-03T09:30:48.392Z,20.05
2019-04-03T09:31:43.565Z,20.05
2019-04-03T09:32:43.642Z,20.05
2019-04-03T09:33:44.046Z,20.04
2019-04-03T09:34:43.708Z,20.05
2019-04-03T09:35:44.046Z,20.05
2019-04-03T09:36:43.396Z,20.07
2019-04-03T09:37:46.951Z,20.07
2019-04-03T09:38:43.366Z,20.07
2019-04-03T09:39:46.667Z,20.07
2019-04-03T09:40:44.181Z,20.07
2019-04-03T09:41:43.448Z,20.07
2019-04-03T09:42:43.424Z,20.08
2019-04-03T09:43:43.437Z,20.07
2019-04-03T09:44:43.587Z,20.07
2019-04-03T09:45:43.848Z,20.08
2019-04-03T09:46:45.781Z,20.08
2019-04-03T09:47:43.581Z,20.11
2019-04-03T09:48:43.809Z,20.09
2019-04-03T09:49:44.800Z,20.09
2019-04-03T09:50:47.451Z,20.13
2019-04-03T09:51:43.336Z,20.15
2019-04-03T09:52:55.633Z,20.15
2019-04-03T09:53:43.465Z,20.18
2019-04-03T09:54:43.455Z,20.16
2019-04-03T09:55:43.608Z,20.18
2019-04-03T09:57:06.035Z,20.18
2019-04-03T09:57:43.650Z,20.16
2019-04-03T09:58:43.541Z,20.19
2019-04-03T09:59:43.471Z,20.16
2019-04-03T10:00:43.863Z,20.19
2019-04-03T10:01:44.082Z,20.18
2019-04-03T10:02:43.868Z,20.15
2019-04-03T10:03:43.696Z,20.19
2019-04-03T10:04:43.682Z,20.18
2019-04-03T10:05:43.522Z,20.2
2019-04-03T10:06:43.986Z,20.2
2019-04-03T10:07:44.002Z,20.2
2019-04-03T10:08:43.702Z,20.22
2019-04-03T10:09:45.142Z,20.22
2019-04-03T10:10:48.364Z,20.23
2019-04-03T10:11:43.648Z,20.25
2019-04-03T10:12:49.143Z,20.27
2019-04-03T10:13:43.481Z,20.25
2019-04-03T10:14:43.517Z,20.26
2019-04-03T10:15:43.854Z,20.27
2019-04-03T10:16:43.292Z,20.27
2019-04-03T10:17:43.536Z,20.29
2019-04-03T10:18:43.809Z,20.26
2019-04-03T10:19:47.038Z,20.32
2019-04-03T10:20:43.439Z,20.33
2019-04-03T10:21:43.836Z,20.33
2019-04-03T10:22:44.012Z,20.33
2019-04-03T10:23:43.643Z,20.33
2019-04-03T10:24:44.230Z,20.33
2019-04-03T10:25:43.941Z,20.35
2019-04-03T10:26:43.681Z,20.33
2019-04-03T10:27:43.948Z,20.35
2019-04-03T10:28:48.548Z,20.35
2019-04-03T10:29:43.525Z,20.36
2019-04-03T10:30:43.337Z,20.35
2019-04-03T10:31:43.979Z,20.36
2019-04-03T10:32:43.780Z,20.36
2019-04-03T10:33:44.097Z,20.35
2019-04-03T10:34:43.698Z,20.35
2019-04-03T10:35:43.819Z,20.36
2019-04-03T10:36:44.033Z,20.36
2019-04-03T10:37:47.685Z,20.37
2019-04-03T10:38:43.826Z,20.37
2019-04-03T10:39:45.160Z,20.36
2019-04-03T10:40:43.542Z,20.33
2019-04-03T10:41:44.069Z,20.33
2019-04-03T10:42:43.778Z,20.33
2019-04-03T10:43:43.297Z,20.36
2019-04-03T10:44:43.485Z,20.35
2019-04-03T10:45:43.283Z,20.36
2019-04-03T10:46:43.454Z,20.37
2019-04-03T10:47:45.217Z,20.37
2019-04-03T10:48:43.586Z,20.39
2019-04-03T10:49:43.357Z,20.39
2019-04-03T10:50:43.922Z,20.37
2019-04-03T10:51:44.058Z,20.42
2019-04-03T10:52:49.511Z,20.39
2019-04-03T10:53:43.400Z,20.39
2019-04-03T10:54:43.844Z,20.39
2019-04-03T10:55:43.841Z,20.4
2019-04-03T10:56:43.599Z,20.4
2019-04-03T10:57:43.477Z,20.4
2019-04-03T10:58:44.606Z,20.42
2019-04-03T10:59:43.988Z,20.4
2019-04-03T11:00:43.883Z,20.4
2019-04-03T11:01:43.776Z,20.4
2019-04-03T11:02:43.567Z,20.37
2019-04-03T11:03:43.447Z,20.37
2019-04-03T11:04:43.419Z,20.39
2019-04-03T11:05:43.884Z,20.39
2019-04-03T11:06:43.551Z,20.39
2019-04-03T11:07:45.236Z,20.36
2019-04-03T11:08:43.664Z,20.36
2019-04-03T11:09:43.522Z,20.35
2019-04-03T11:10:43.482Z,20.37
2019-04-03T11:11:44.304Z,20.32
2019-04-03T11:12:43.510Z,20.33
2019-04-03T11:13:43.868Z,20.32
2019-04-03T11:14:44.069Z,20.32
2019-04-03T11:15:45.253Z,20.3
2019-04-03T11:16:47.464Z,20.32
2019-04-03T11:17:43.635Z,20.32
2019-04-03T11:18:43.892Z,20.32
2019-04-03T11:19:45.060Z,20.29
2019-04-03T11:20:43.760Z,20.3
2019-04-03T11:21:45.802Z,20.32
2019-04-03T11:22:44.163Z,20.3
2019-04-03T11:23:46.170Z,20.29
2019-04-03T11:24:44.242Z,20.3
2019-04-03T11:25:48.265Z,20.27
2019-04-03T11:26:44.166Z,20.29
2019-04-03T11:27:46.790Z,20.27
2019-04-03T11:28:43.949Z,20.29
2019-04-03T11:29:43.554Z,20.26
2019-04-03T11:30:43.576Z,20.27
2019-04-03T11:31:43.703Z,20.27
2019-04-03T11:32:44.014Z,20.25
2019-04-03T11:33:51.742Z,20.26
2019-04-03T11:34:43.722Z,20.26
2019-04-03T11:35:43.842Z,20.23
2019-04-03T11:36:43.490Z,20.23
2019-04-03T11:37:43.896Z,20.23
2019-04-03T11:38:43.666Z,20.23
2019-04-03T11:39:47.505Z,20.23
2019-04-03T11:40:43.324Z,20.22
2019-04-03T11:41:43.798Z,20.22
2019-04-03T11:42:43.574Z,20.22
2019-04-03T11:43:43.700Z,20.2
2019-04-03T11:44:43.395Z,20.2
2019-04-03T11:45:43.392Z,20.2
2019-04-03T11:46:43.707Z,20.19
2019-04-03T11:47:47.560Z,20.19
2019-04-03T11:48:44.128Z,20.18
2019-04-03T11:49:43.627Z,20.19
2019-04-03T11:50:43.473Z,20.19
2019-04-03T11:51:43.499Z,20.19
2019-04-03T11:52:43.515Z,20.16
2019-04-03T11:53:46.993Z,20.18
2019-04-03T11:54:43.262Z,20.13
2019-04-03T11:55:43.452Z,20.19
2019-04-03T11:56:46.071Z,20.16
2019-04-03T11:57:43.379Z,20.16
2019-04-03T11:58:43.496Z,20.19
2019-04-03T11:59:43.268Z,20.19
2019-04-03T12:00:43.408Z,20.15
2019-04-03T12:01:43.467Z,20.16
2019-04-03T12:02:45.329Z,20.18
2019-04-03T12:03:43.383Z,20.18
2019-04-03T12:04:44.850Z,20.18
2019-04-03T12:05:44.161Z,20.16
2019-04-03T12:06:43.435Z,20.18
2019-04-03T12:07:43.567Z,20.18
2019-04-03T12:08:46.311Z,20.18
2019-04-03T12:09:44.006Z,20.16
2019-04-03T12:10:44.060Z,20.15
2019-04-03T12:11:43.909Z,20.18
2019-04-03T12:12:43.989Z,20.18
2019-04-03T12:13:46.940Z,20.16
2019-04-03T12:14:43.756Z,20.16
2019-04-03T12:15:43.814Z,20.19
2019-04-03T12:16:43.717Z,20.18
2019-04-03T12:17:43.392Z,20.16
2019-04-03T12:18:43.354Z,20.19
2019-04-03T12:19:46.781Z,20.18
2019-04-03T12:20:50.750Z,20.16
2019-04-03T12:21:43.746Z,20.16
2019-04-03T12:22:43.450Z,20.16
2019-04-03T12:23:43.409Z,20.18
2019-04-03T12:24:44.082Z,20.16
2019-04-03T12:25:43.904Z,20.16
2019-04-03T12:26:44.838Z,20.15
2019-04-03T12:27:47.848Z,20.16
2019-04-03T12:28:43.838Z,20.15
2019-04-03T12:29:43.528Z,20.13
2019-04-03T12:30:43.919Z,20.18
2019-04-03T12:31:44.083Z,20.16
2019-04-03T12:32:50.521Z,20.18
2019-04-03T12:34:07.660Z,20.19
2019-04-03T12:34:43.262Z,20.18
2019-04-03T12:35:43.280Z,20.22
2019-04-03T12:36:47.315Z,20.23
2019-04-03T12:37:44.001Z,20.23
2019-04-03T12:38:43.352Z,20.25
2019-04-03T12:39:43.349Z,20.25
2019-04-03T12:40:43.586Z,20.26
2019-04-03T12:41:44.304Z,20.27
2019-04-03T12:42:43.432Z,20.25
2019-04-03T12:43:43.436Z,20.25
2019-04-03T12:44:43.520Z,20.26
2019-04-03T12:45:43.940Z,20.27
2019-04-03T12:46:43.972Z,20.29
2019-04-03T12:47:45.553Z,20.3
2019-04-03T12:48:43.537Z,20.29
2019-04-03T12:49:43.636Z,20.32
2019-04-03T12:50:43.379Z,20.32
2019-04-03T12:51:43.559Z,20.32
2019-04-03T12:52:46.174Z,20.32
2019-04-03T12:53:43.690Z,20.33
2019-04-03T12:54:43.573Z,20.35
2019-04-03T12:55:43.680Z,20.33
2019-04-03T12:56:43.804Z,20.32